ブエノスアイレス/エセイサ の空港の天気 - METARとTAF

エセイサ国際空港 ( SAEZ / EZE ) - アルゼンチン ブエノスアイレス州、Ezeiza
飛行場実況気象(Metar)
観測時間03/29 10:00 -03 (03/29 13:00 UTC)
風向・風速北東 5m/s
視程10km以上
天気現象
全天の8割程度の雲 雲底高度 460m
気温21℃
湿度83%
気圧1020hPa
METARSAEZ 291300Z 05010KT 9999 BKN015 21/18 Q1020
過去の天気等 Google飛行場航空写真 Wunderground天気予報

過去48時間のMETAR

飛行場予報(TAF)
発表時間: 3/29 08:00 -03 (3/29 11:00 UTC)
予報対象時間: 29日9時 -03 ~ 30日9時 -03
風向・風速北東 6m/s
視程10km以上
なし
29日9時 -03 ~ 29日12時 -03 に一時的に
全天の4割程度の雲 雲底高度 460m
29日10時 -03 ~ 29日12時 -03 に徐々に
風向・風速北東 8m/s 瞬間風速 10m/s
29日22時 -03 ~ 29日24時 -03 に徐々に
風向・風速東北東 8m/s
少しの雲 雲底高度 610m
全天の4割程度の雲 雲底高度 6,100m
TAF SAEZ 291100Z 2912/3012 05012KT CAVOK TX28/2918Z TN21/3009Z
TEMPO 2912/2915 SCT015
BECMG 2913/2915 05016G20KT
BECMG 3001/3003 07016KT FEW020 SCT200